Timeline UpdatesTrip UpdatesNews PostsPvt PostsTravel TipsAdmin PostsConv PostsFollowed PostsChat RequestsBlog PostsPNR Posts

Disclaimer
Search
 
 
Fri Jul 25, 2014 10:46:35 ISTHomeTrainsΣChainsAtlasPNRForumGalleryNewsFAQTripsMembersLoginFeedback
No Recent News for this Train
Other Trains in the News **new
Latest...
.
Tue Jan 15, 2013 (02:24AM)
⇐ Return Journey: Train# 54251

54252/Saharanpur-Lucknow Passenger

Feb 20 2014 (11:33AM)
Change Departure Station:
Change Arrival Station:
Post a Train Travel TipPost a Train Travel Tip **new
Post a Comment/Question/Picture/VideoPost a Comment/Question/Picture/Video
Pantry/Catering
✕ NO Pantry Car
✕ NO Catering
RSA - Rake Sharing
54232/54233/54251/54252/54253/54254
Rake/Coach Composition
.
Loco
GZB WAP1
News    PNR    Forum    Time-Table    Availability    Fare Chart    Map    Arr/Dep History    Trips    Gallery    ΣChains    X/O    Timeline    
Travel Time: 10h 29m    38 halts    Distance: 265 km    Avg Speed: 25 km/hr
Type: Passenger
Zone: NR/Northern
Departs @ 08:15
Platform# ???
SMTWTFS
Saharanpur Junction/SRE 
Arrives @ 18:44
Platform# ???
SMTWTFS
Dhaneta/DAN 

38 halts. 44 intermediate Stations between Saharanpur Junction and Dhaneta

Show ALL intermediate Stations  Show Old Time-Table

#CodeStation NameX/OArrivesAvgDepartsAvgHaltPFDay#KmSpeedElevZoneAddress
1SRE»Saharanpur Junction (6)»  -08:15---10.050276mNRSaharanpur, Uttar Pradesh
2BAEBaliakheri  08:27-08:29-2m--110.043274mNRSaharanpur, Uttar Pradesh
3SNKESunehti Kharkhari (2)  08:36-08:38-2m--115.148216mNRSunehti Kharkhr, Uttar Pradesh
4CDLChodialaX  08:45-08:47-2m--120.749270mNRMDR 163W, Uttar Pradesh
5IQBIqbalpur  08:55-08:57-2m--127.250267mNRNational Highway 73, Uttar Pradesh
6RKRoorkee (3)XO  09:06-09:08-2m1134.715264mNRRoorkee - 247667, Uttarakhand
7DNRADhandhera (2)X  09:19-09:21-2m--137.550267mNRRoorkee - 247667, Uttarakhand
8LDRLandaura (2)X  09:27-09:29-2m--142.550261mNRHaridwar, Uttarakhand
9DSNIDausni (2)X  09:35-09:37-2m--147.59244mNRLaksar, Uttarakhand
10LRJLaksar Junction (4)X  10:10-11:15-65m1152.598238mNRLaksar, Uttarakhand
11RSIRaisi  11:22-11:24-2m--163.938231mNRLaksar, Uttarakhand
12BLWBalawali (2)  11:33-11:35-2m--169.652242mNRNational Highway 119, Uttar Pradesh
13CNKChandok (2)  11:43-11:45-2m--176.592257mNRChandok, Uttar Pradesh
14MZMMuzzampur Narayan (3)  11:53-11:55-2m--188.746258mNRJunction Point - NBD/LRJ/BJO, Uttar Pradesh
15FZLFazalpur (2)  12:02-12:04-2m--194.131256mNRState Highway 49, Uttar Pradesh
16NBDNajibabad Junction (3)X  12:15-12:25-10m3199.891269mNRNajibabad, Uttar Pradesh
17MSDRMurshadpurX  12:31-12:33-2m--1108.931258mNRNagina, Uttar Pradesh
18BEKBundki  12:40-12:42-2m--1112.474255mNRNagina, Uttar Pradesh
19NGGNagina (3)X  12:50-12:55-5m--1122.335247mNRNagina, Uttar Pradesh
20PNIPuraini  13:05-13:07-2m--1128.148246mNRDhampur, Uttar Pradesh
21HBWHabibwala  13:14-13:16-2m--1133.753239mNRNagina, Uttar Pradesh
22DPRDhampurX  13:22-13:27-5m--1139.039236mNRDhampur, Uttar Pradesh
23CAJChakraj Mal  13:38-13:40-2m--1146.180229mNRNagina, Uttar Pradesh
24SEOSeoharaXO  13:45-13:50-5m--1152.834224mNRSeohara, Uttar Pradesh
25MWEMewa NawadaO  14:08-14:10-2m--1162.978221mNRSahaspur, Uttar Pradesh
26KNTKanth  14:15-14:20-5m--1169.437221mNRKanth, Uttar Pradesh
27MTBMatlabpur  14:34-14:36-2m--1178.048216mNRMoradabad, Uttar Pradesh
28AWPAghwanpur  14:48-14:50-2m--1187.657212mNRMoradabad, Uttar Pradesh
29HRHHarthalaX  14:56-14:59-3m--1193.37206mNRMoradabad, Uttar Pradesh
30MBMoradabad Junction (7)XO15:45-17:00-75m--1198.737201mNRMoradabad, Uttar Pradesh
31KGFKathgharX  17:06-17:07-1m--1202.546199mNRMoradabad, Uttar Pradesh
32DLPDalpatpur  17:18-17:20-2m--1210.955195mNRNH-24, Uttar Pradesh
33MPHMundha Pande  17:27-17:29-2m--1217.347191mNRNH 24, Uttar Pradesh
34RMURampur Junction (3)  17:40-17:42-2m--1226.035190mNRRampur, Uttar Pradesh
35SARShahzad Nagar  17:53-17:55-2m--1232.546186mNRNH 24, Uttar Pradesh
36DAMDhamora  18:02-18:04-2m--1237.946183mNRNH 24, Uttar Pradesh
37DUNDuganpur  18:11-18:13-2m--1243.339180mNRNH 24, Uttar Pradesh
38MILMilak  18:22-18:24-2m--1249.150180mNRMilak, Uttar Pradesh
39NRSNagaria SadatXO  18:34-18:36-2m--1257.454177mNRNagaria Sadat, Uttar Pradesh
40DAN•Dhaneta•  18:44-18:46-2m--1264.653174mNRNH 24, Uttar Pradesh
41BTOBhitaura  18:53-18:55-2m--1270.846173mNRFatehganj Pashchimi, Uttar Pradesh
42PKRAParsa KheraX  19:02-19:04-2m--1276.143170mNRNH 24, Uttar Pradesh
43CBJClutterbuckGanjXO  19:11-19:13-2m--1281.28172mNRBareilly, Uttar Pradesh
44BEBareilly Junction (4)X  20:10-20:20-10m11289.045174mNRBareilly, Uttar Pradesh
45CHTIChanehti Junction  20:25-20:27-2m--1292.850168mNRBareilly, Uttar Pradesh
46RYSRasuriyaX  20:35-20:37-2m--1299.563174mNRNH 24, Uttar Pradesh
47PMRPitambarpurX  20:46-20:48-2m--1308.957171mNRPitambarpur, Uttar Pradesh
48TSATisua  20:57-20:59-2m--1317.553165mNRNational Highway 24, Uttar Pradesh
49BLPUBilpurX  21:07-21:09-2m--1324.554161mNRFatehganj, Uttar Pradesh
50MKMiranpur Katra  21:17-21:19-2m--1331.749162mNRShahjahanpur, Uttar Pradesh
51TLHTilhar  21:31-21:33-2m--1341.4-163mNRTilhar, Uttar Pradesh
52BTRABanthraX  21:35-21:37-2m--1351.118154mNRNH 24, Uttar Pradesh
53SPNShahjahanpur Junction (3)X  22:05-22:10-5m--1359.555156mNRShahjahanpur, Uttar Pradesh
54ROZARoza Junction (4)X  22:18-22:20-2m--1366.921156mNRShahjahanpur, Uttar Pradesh
55KHKahiliyaX  22:45-22:47-2m--1375.457152mNRSH 25, Uttar Pradesh
56AIGAlgawanXO  22:56-22:58-2m--1384.054152mNRAlgawan, Uttar Pradesh
57AJIAnjhi Shahabad  23:05-23:07-2m--1390.264148mNRAnjhi Shahabad, Uttar Pradesh
58TDPTodarpurX  23:15-23:17-2m--1398.755147mNRSH 25, Uttar Pradesh
59BEGBehtagokulX  23:24-23:26-2m--1405.259152mNRBehtagokul, Uttar Pradesh
60KUFKaurha  23:35-23:37-2m--1414.023148mNRSH 25, Uttar Pradesh
61HRIHardoi (5)  23:59-00:01-2m--1422.445146mNRHardoi, Uttar Pradesh
62KARKarnaX  00:14-00:16-2m--2432.356143mNRHardoi, Uttar Pradesh
63MSTMasitX  00:24-00:26-2m--2439.852141mNRSH 25, Uttar Pradesh
64BGHBaghauliX  00:34-00:36-2m--2446.787141mNRsharda nehar, Uttar Pradesh
65BLMBalamu Junction (4)X  00:42-00:47-5m--2455.543139mNRBalamau, Uttar Pradesh
66DLQDalelnagarXO  00:59-01:01-2m--2464.155136mNRSH 25, Uttar Pradesh
67UTAUmar TaliXO  01:08-01:10-2m--2470.545135mNRHardoi, Uttar Pradesh
68SANSandila (3)X  01:17-01:19-2m--2475.855132mNRSandila, Uttar Pradesh
69RBDRahimabad  01:31-01:33-2m--2486.857132mNRSH 25, Uttar Pradesh
70DILDilawarnagarX  01:41-01:43-2m--2494.449133mNRSH 25, Uttar Pradesh
71MLDMalihabadX  01:50-01:52-2m--2500.164130mNRMalihabad, Uttar Pradesh
72KKJKakori (3)XO  02:01-02:03-2m--2509.75129mNRSH 25, Uttar Pradesh
73AMGAlamnagar (3)O  03:42-03:43-1m--2517.319126mNRLucknow, Uttar Pradesh
74LKOLucknow Charbagh (9)  04:05--72524.3-123mNR226004, Uttar Pradesh
Scroll to Top
Scroll to Bottom